Fecha, hora, temperatura, viento dirección y velocidad, humedad y presión.

  • 11-04-2019 21:00:00 | 1.60°C | Noroeste |13.00 km/h | 89.00% | 849.90 hPa
  • 11-04-2019 20:00:00 | 2.30°C | Noroeste |9.00 km/h | 84.00% | 849.80 hPa
  • 11-04-2019 19:00:00 | 2.70°C | Noroeste |13.00 km/h | 83.00% | 849.80 hPa
  • 11-04-2019 18:00:00 | 3.20°C | Norte |15.00 km/h | 80.00% | 849.80 hPa
  • 11-04-2019 17:00:00 | 0.00°C | 0 |0.00 km/h | 0.00% | 0.00 hPa
  • 11-04-2019 16:00:00 | 3.40°C | Norte |9.00 km/h | 77.00% | 849.90 hPa
  • 11-04-2019 15:00:00 | 0.00°C | 0 |0.00 km/h | 0.00% | 0.00 hPa
  • 11-04-2019 14:00:00 | 2.10°C | Noroeste |13.00 km/h | 79.00% | 850.10 hPa
  • 11-04-2019 13:00:00 | 2.20°C | Noroeste |12.00 km/h | 81.00% | 850.00 hPa
  • 11-04-2019 12:00:00 | 0.00°C | 0 |0.00 km/h | 0.00% | 0.00 hPa
  • 11-04-2019 11:00:00 | 0.00°C | 0 |0.00 km/h | 0.00% | 0.00 hPa
  • 11-04-2019 10:00:00 | 0.30°C | Noroeste |8.00 km/h | 78.00% | 849.10 hPa
  • 11-04-2019 09:00:00 | -0.40°C | Noroeste |6.00 km/h | 77.00% | 848.80 hPa
  • 11-04-2019 08:00:00 | -2.30°C | Noroeste |5.00 km/h | 83.00% | 848.70 hPa
  • 11-04-2019 07:00:00 | -2.00°C | Noroeste |8.00 km/h | 86.00% | 848.60 hPa
  • 11-04-2019 06:00:00 | -1.90°C | Noroeste |15.00 km/h | 92.00% | 848.70 hPa
  • 11-04-2019 05:00:00 | -1.40°C | Noroeste |8.00 km/h | 89.00% | 848.70 hPa
  • 11-04-2019 04:00:00 | -0.80°C | Noroeste |5.00 km/h | 95.00% | 848.60 hPa
  • 11-04-2019 03:00:00 | -0.40°C | Noroeste |6.00 km/h | 95.00% | 848.90 hPa
  • 11-04-2019 02:00:00 | 0.00°C | 0 |0.00 km/h | 0.00% | 0.00 hPa
  • 11-04-2019 01:00:00 | 0.00°C | Noroeste |11.00 km/h | 95.00% | 848.90 hPa
  • 11-04-2019 00:00:00 | 0.40°C | Noroeste |7.00 km/h | 91.00% | 848.80 hPa
  • 10-04-2019 23:00:00 | 0.50°C | Noroeste |14.00 km/h | 91.00% | 848.90 hPa
  • 10-04-2019 22:00:00 | 0.00°C | 0 |0.00 km/h | 0.00% | 0.00 hPa
    • diseño web asturias Información sobre el estado de las mareas, altura de la marejada, temperatura del agua y otros datos de Gijón en Asturias.

      Surf Gijón